createdAt,value
2023-07-25T00:02:31.161Z,325.33
2023-07-25T00:07:33.474Z,328.37
2023-07-25T00:12:39.469Z,325.83
2023-07-25T00:17:41.729Z,318.93
2023-07-25T00:22:43.888Z,298.50
2023-07-25T00:27:46.230Z,296.87
2023-07-25T00:32:48.557Z,298.47
2023-07-25T00:37:51.005Z,296.30
2023-07-25T00:42:57.239Z,303.83
2023-07-25T00:47:59.480Z,327.63
2023-07-25T00:53:03.692Z,329.10
2023-07-25T00:58:05.877Z,328.57
2023-07-25T01:03:08.380Z,334.20
2023-07-25T01:08:10.916Z,331.17
2023-07-25T01:13:13.135Z,310.60
2023-07-25T01:18:16.118Z,300.30
2023-07-25T01:23:21.087Z,301.10
2023-07-25T01:28:25.272Z,309.20
2023-07-25T01:33:27.612Z,359.50
2023-07-25T01:38:29.802Z,384.53
2023-07-25T01:43:32.141Z,390.87
2023-07-25T01:48:34.243Z,374.07
2023-07-25T01:53:36.444Z,365.60
2023-07-25T01:58:38.752Z,354.90
2023-07-25T02:03:40.921Z,332.27
2023-07-25T02:08:43.114Z,317.37
2023-07-25T02:13:45.261Z,301.60
2023-07-25T02:18:47.403Z,304.17
2023-07-25T02:23:49.763Z,303.43
2023-07-25T02:28:52.233Z,384.53
2023-07-25T02:33:55.611Z,432.97
2023-07-25T02:38:57.806Z,379.17
2023-07-25T02:44:01.053Z,379.13
2023-07-25T02:49:03.300Z,397.07
2023-07-25T02:54:05.792Z,375.73
2023-07-25T02:59:08.016Z,379.97
2023-07-25T03:04:10.250Z,402.43
2023-07-25T03:09:12.571Z,360.63
2023-07-25T03:14:14.812Z,316.87
2023-07-25T03:19:17.129Z,318.70
2023-07-25T03:24:19.305Z,319.57
2023-07-25T03:29:21.953Z,336.93
2023-07-25T03:34:24.210Z,321.97
2023-07-25T03:39:26.379Z,344.73
2023-07-25T03:44:28.525Z,365.87
2023-07-25T03:49:30.729Z,365.57
2023-07-25T03:54:32.956Z,366.37
2023-07-25T03:59:35.176Z,341.03
2023-07-25T04:04:37.434Z,359.20
2023-07-25T04:09:39.645Z,354.97
2023-07-25T04:14:42.360Z,598.57
2023-07-25T04:19:44.583Z,560.47
2023-07-25T04:24:46.788Z,570.33
2023-07-25T04:29:48.960Z,305.53
2023-07-25T04:34:51.409Z,301.50
2023-07-25T04:39:53.906Z,302.73
2023-07-25T04:44:58.720Z,315.80
2023-07-25T04:50:01.207Z,332.43
2023-07-25T04:55:03.436Z,329.67
2023-07-25T05:00:07.636Z,333.73
2023-07-25T05:05:10.184Z,335.07
2023-07-25T05:10:12.432Z,321.80
2023-07-25T05:15:14.685Z,300.43
2023-07-25T05:20:17.057Z,302.30
2023-07-25T05:25:19.281Z,305.87
2023-07-25T05:30:21.666Z,309.47
2023-07-25T05:35:24.096Z,311.47
2023-07-25T05:40:26.242Z,323.87
2023-07-25T05:45:28.404Z,349.27
2023-07-25T05:50:30.586Z,359.53
2023-07-25T05:55:32.726Z,337.23
2023-07-25T06:00:34.853Z,332.80
2023-07-25T06:05:37.008Z,330.93
2023-07-25T06:10:40.841Z,331.33
2023-07-25T06:15:43.043Z,314.63
2023-07-25T06:20:48.298Z,301.73
2023-07-25T06:25:50.490Z,302.57
2023-07-25T06:30:53.218Z,302.10
2023-07-25T06:35:55.734Z,310.47
2023-07-25T06:40:58.386Z,327.50
2023-07-25T06:46:01.487Z,348.60
2023-07-25T06:51:04.133Z,356.17
2023-07-25T06:56:06.302Z,374.23
2023-07-25T07:01:08.487Z,380.10
2023-07-25T07:06:10.685Z,366.90
2023-07-25T07:11:12.821Z,335.23
2023-07-25T07:16:15.793Z,306.30
2023-07-25T07:21:17.943Z,302.77
2023-07-25T07:26:20.210Z,302.37
2023-07-25T07:31:24.870Z,306.17
2023-07-25T07:36:27.202Z,319.20
2023-07-25T07:41:29.566Z,328.23
2023-07-25T07:46:34.233Z,328.47
2023-07-25T07:51:36.443Z,329.67
2023-07-25T07:56:42.040Z,327.10
2023-07-25T08:01:50.070Z,294.40
2023-07-25T08:06:57.053Z,298.90
2023-07-25T08:12:00.024Z,325.63
2023-07-25T08:17:02.305Z,333.23
2023-07-25T08:22:04.904Z,330.37
2023-07-25T08:27:08.686Z,325.97
2023-07-25T08:32:14.603Z,329.87
2023-07-25T08:37:27.217Z,314.37
2023-07-25T08:42:38.820Z,323.70
2023-07-25T08:47:47.262Z,318.07
2023-07-25T08:52:58.175Z,300.87
2023-07-25T08:58:01.651Z,328.27
2023-07-25T09:03:09.774Z,346.33
2023-07-25T09:08:28.309Z,324.53
2023-07-25T09:13:32.338Z,339.83
2023-07-25T09:18:39.366Z,349.20
2023-07-25T09:23:54.992Z,351.23
2023-07-25T09:29:01.499Z,317.60
2023-07-25T09:34:22.240Z,358.80
2023-07-25T09:39:24.725Z,300.97
2023-07-25T09:50:07.150Z,376.97
2023-07-25T09:55:14.472Z,375.20
2023-07-25T10:00:21.382Z,323.30
2023-07-25T10:05:25.417Z,318.20
2023-07-25T10:10:32.690Z,370.67
2023-07-25T10:15:35.745Z,410.67
2023-07-25T10:20:38.685Z,422.70
2023-07-25T10:25:40.913Z,439.73
2023-07-25T10:30:47.305Z,415.10
2023-07-25T10:35:57.712Z,382.30
2023-07-25T10:41:20.326Z,436.23
2023-07-25T10:46:35.759Z,346.17
2023-07-25T10:51:57.507Z,426.43
2023-07-25T10:57:24.226Z,413.03
2023-07-25T11:02:41.633Z,344.47
2023-07-25T11:07:56.300Z,307.20
2023-07-25T11:13:06.948Z,369.37
2023-07-25T11:18:12.133Z,400.57
2023-07-25T11:23:15.070Z,359.57
2023-07-25T11:28:18.060Z,335.17
2023-07-25T11:33:21.817Z,343.73
2023-07-25T11:38:26.265Z,367.47
2023-07-25T11:43:31.771Z,448.43
2023-07-25T11:48:34.304Z,457.57
2023-07-25T11:53:39.555Z,461.23
2023-07-25T11:58:51.260Z,462.80
2023-07-25T12:03:54.137Z,371.50
2023-07-25T12:09:01.934Z,425.37
2023-07-25T12:14:05.648Z,455.90
2023-07-25T12:19:24.587Z,454.80
2023-07-25T12:24:26.943Z,409.03
2023-07-25T12:29:29.287Z,450.63
2023-07-25T12:34:31.573Z,454.43
2023-07-25T12:39:33.728Z,449.03
2023-07-25T12:44:35.938Z,441.93
2023-07-25T12:49:39.473Z,460.97
2023-07-25T12:54:44.096Z,432.80
2023-07-25T12:59:46.273Z,388.00
2023-07-25T13:05:01.218Z,409.20
2023-07-25T13:10:03.660Z,488.40
2023-07-25T13:15:07.354Z,505.70
2023-07-25T13:20:10.252Z,503.23
2023-07-25T13:25:22.086Z,532.93
2023-07-25T13:30:25.993Z,430.80
2023-07-25T13:35:28.254Z,476.13
2023-07-25T13:40:30.627Z,477.37
2023-07-25T13:45:46.037Z,499.83
2023-07-25T13:50:55.335Z,422.00
2023-07-25T13:56:02.084Z,440.63
2023-07-25T14:01:09.224Z,503.87
2023-07-25T14:06:13.549Z,476.60
2023-07-25T14:11:22.027Z,462.07
2023-07-25T14:16:24.599Z,416.70
2023-07-25T14:21:37.043Z,444.73
2023-07-25T14:26:39.458Z,505.77
2023-07-25T14:31:52.134Z,747.10
2023-07-25T14:36:56.851Z,463.03
2023-07-25T14:42:02.094Z,476.80
2023-07-25T14:47:07.013Z,498.60
2023-07-25T14:52:11.912Z,500.33
2023-07-25T14:57:21.927Z,478.77
2023-07-25T15:02:27.397Z,438.77
2023-07-25T15:07:33.010Z,543.53
2023-07-25T15:12:35.519Z,498.63
2023-07-25T15:17:37.972Z,536.23
2023-07-25T15:22:42.731Z,522.13
2023-07-25T15:27:49.394Z,477.10
2023-07-25T15:32:54.090Z,451.03
2023-07-25T15:37:58.846Z,481.57
2023-07-25T15:43:09.643Z,508.53
2023-07-25T15:48:24.578Z,498.53
2023-07-25T15:53:29.170Z,431.07
2023-07-25T15:58:34.014Z,411.23
2023-07-25T16:03:44.848Z,397.47
2023-07-25T16:08:50.199Z,310.27
2023-07-25T16:13:56.128Z,307.63
2023-07-25T16:18:58.339Z,326.17
2023-07-25T16:24:00.578Z,340.23
2023-07-25T16:29:02.819Z,354.40
2023-07-25T16:39:44.750Z,332.50
2023-07-25T16:45:20.365Z,307.93
2023-07-25T16:50:25.729Z,297.97
2023-07-25T16:55:31.267Z,316.70
2023-07-25T17:00:58.768Z,355.50
2023-07-25T17:06:06.780Z,378.90
2023-07-25T17:11:12.815Z,435.03
2023-07-25T17:16:20.789Z,347.40
2023-07-25T17:21:34.114Z,367.60
2023-07-25T17:26:42.026Z,464.93
2023-07-25T17:31:46.571Z,440.10
2023-07-25T17:36:48.730Z,401.07
2023-07-25T17:41:51.032Z,427.40
2023-07-25T17:46:53.384Z,406.57
2023-07-25T17:51:55.845Z,398.77
2023-07-25T17:57:03.298Z,478.90
2023-07-25T18:02:07.202Z,486.50
2023-07-25T18:07:09.424Z,484.93
2023-07-25T18:12:16.634Z,420.97
2023-07-25T18:17:18.861Z,394.47
2023-07-25T18:22:22.455Z,412.07
2023-07-25T18:27:40.138Z,497.43
2023-07-25T18:32:43.449Z,492.87
2023-07-25T18:37:53.430Z,394.40
2023-07-25T18:42:56.062Z,407.53
2023-07-25T18:48:00.729Z,410.50
2023-07-25T18:53:02.922Z,439.87
2023-07-25T18:58:07.501Z,430.20
2023-07-25T19:03:09.769Z,429.43
2023-07-25T19:08:11.955Z,406.73
2023-07-25T19:13:14.108Z,366.87
2023-07-25T19:18:16.862Z,316.73
2023-07-25T19:23:26.462Z,307.67
2023-07-25T19:28:30.364Z,369.40
2023-07-25T19:33:34.348Z,391.93
2023-07-25T19:38:40.731Z,366.93
2023-07-25T19:43:48.846Z,321.13
2023-07-25T19:48:53.276Z,305.17
2023-07-25T19:53:56.062Z,301.90
2023-07-25T19:59:06.298Z,342.67
2023-07-25T20:04:11.667Z,333.27
2023-07-25T20:09:14.224Z,330.20
2023-07-25T20:14:18.685Z,306.80
2023-07-25T20:19:27.382Z,298.10
2023-07-25T20:24:35.654Z,333.60
2023-07-25T20:29:37.870Z,328.23
2023-07-25T20:34:46.320Z,316.57
2023-07-25T20:39:48.576Z,300.07
2023-07-25T20:44:53.254Z,301.20
2023-07-25T20:50:00.161Z,296.03
2023-07-25T20:55:05.050Z,326.97
2023-07-25T21:00:11.014Z,330.67
2023-07-25T21:05:13.450Z,331.03
2023-07-25T21:10:15.646Z,310.23
2023-07-25T21:15:23.150Z,293.33
2023-07-25T21:20:29.112Z,289.63
2023-07-25T21:31:12.359Z,329.77
2023-07-25T21:36:15.067Z,316.37
2023-07-25T21:41:17.388Z,297.47
2023-07-25T21:46:19.707Z,294.93
2023-07-25T21:51:21.896Z,289.60
2023-07-25T21:56:24.258Z,292.37
2023-07-25T22:01:26.722Z,292.60
2023-07-25T22:06:30.012Z,300.40
2023-07-25T22:11:32.655Z,321.67
2023-07-25T22:16:35.333Z,325.93
2023-07-25T22:21:37.945Z,331.00
2023-07-25T22:26:40.104Z,323.23
2023-07-25T22:31:42.299Z,329.30
2023-07-25T22:36:44.549Z,326.10
2023-07-25T22:41:46.712Z,301.77
2023-07-25T22:46:48.870Z,298.67
2023-07-25T22:51:51.070Z,309.77
2023-07-25T22:56:53.479Z,293.63
2023-07-25T23:01:56.048Z,296.77
2023-07-25T23:06:58.340Z,299.87
2023-07-25T23:12:00.699Z,316.50
2023-07-25T23:17:02.969Z,314.43
2023-07-25T23:22:05.237Z,314.77
2023-07-25T23:27:08.268Z,315.20
2023-07-25T23:32:12.030Z,318.50
2023-07-25T23:37:14.482Z,331.50
2023-07-25T23:42:16.798Z,306.57
2023-07-25T23:47:18.983Z,284.33
2023-07-25T23:52:21.151Z,292.87
2023-07-25T23:57:23.447Z,297.83
